Time;durP1;ratioP1;P1;durP2;ratioP2;P2;SDS_P1;SDS_P2;PMS_P1;PMS_P2;Temp;Humidity;BMP_temperature;BMP_pressure;BME280_temperature;BME280_humidity;BME280_pressure;Samples;Min_cycle;Max_cycle;Signal;HPM_P1;HPM_P2
2023/02/25 00:02:28;;;;;;;6.03;2.33;;;;;;;;;;5068431;28;20044;-73
2023/02/25 00:05:05;;;;;;;8.20;2.50;;;;;;;;;;5086507;28;20051;-75
2023/02/25 00:07:37;;;;;;;4.00;2.22;;;;;;;;;;5086866;28;20040;-72
2023/02/25 00:10:10;;;;;;;6.28;2.40;;;;;;;;;;5086724;28;20052;-73
2023/02/25 00:12:41;;;;;;;6.50;2.10;;;;;;;;;;5085939;28;20048;-73
2023/02/25 00:15:12;;;;;;;9.32;2.17;;;;;;;;;;5086200;28;20039;-73
2023/02/25 00:17:42;;;;;;;6.70;2.38;;;;;;;;;;5086192;28;20040;-71
2023/02/25 00:20:12;;;;;;;7.13;2.17;;;;;;;;;;5086568;28;20048;-73
2023/02/25 00:22:43;;;;;;;7.60;2.10;;;;;;;;;;5086187;28;20393;-73
2023/02/25 00:25:15;;;;;;;7.43;1.77;;;;;;;;;;5086085;28;20495;-71
2023/02/25 00:27:46;;;;;;;7.07;2.00;;;;;;;;;;5086229;28;20047;-78
2023/02/25 00:30:16;;;;;;;6.25;2.00;;;;;;;;;;5068076;28;20044;-73
2023/02/25 00:32:46;;;;;;;3.97;2.00;;;;;;;;;;5069579;28;20044;-74
2023/02/25 00:35:17;;;;;;;5.63;2.03;;;;;;;;;;5086379;28;20055;-73
2023/02/25 00:37:49;;;;;;;6.45;2.35;;;;;;;;;;5085888;28;20044;-73
2023/02/25 00:40:21;;;;;;;8.75;2.30;;;;;;;;;;5085878;28;20062;-73
2023/02/25 00:42:52;;;;;;;6.18;2.10;;;;;;;;;;5085962;28;20415;-72
2023/02/25 00:45:22;;;;;;;6.00;1.83;;;;;;;;;;5086374;28;20533;-76
2023/02/25 00:47:52;;;;;;;4.15;2.00;;;;;;;;;;5087713;28;20047;-74
2023/02/25 00:50:23;;;;;;;5.78;2.10;;;;;;;;;;5088477;28;20052;-73
2023/02/25 00:52:54;;;;;;;7.40;1.80;;;;;;;;;;5067666;28;20048;-76
2023/02/25 00:55:24;;;;;;;4.55;1.80;;;;;;;;;;5085939;28;20048;-72
2023/02/25 00:57:54;;;;;;;2.80;1.70;;;;;;;;;;5067854;28;20052;-74
2023/02/25 01:00:27;;;;;;;1.90;1.23;;;;;;;;;;5085689;28;20055;-73
2023/02/25 01:02:59;;;;;;;5.32;1.75;;;;;;;;;;5086118;28;20048;-74
2023/02/25 01:05:31;;;;;;;2.47;1.50;;;;;;;;;;5086232;28;20052;-73
2023/02/25 01:08:03;;;;;;;3.70;1.48;;;;;;;;;;5090788;28;20044;-73
2023/02/25 01:10:34;;;;;;;2.40;1.48;;;;;;;;;;5080174;28;20058;-73
2023/02/25 01:13:04;;;;;;;2.85;1.50;;;;;;;;;;5099912;28;20051;-72
2023/02/25 01:15:34;;;;;;;3.92;1.67;;;;;;;;;;5077106;28;20063;-72
2023/02/25 01:18:05;;;;;;;6.20;1.50;;;;;;;;;;5100144;28;20047;-73
2023/02/25 01:20:38;;;;;;;4.03;1.60;;;;;;;;;;5080296;28;20075;-73
2023/02/25 01:23:08;;;;;;;4.38;1.75;;;;;;;;;;5064554;28;20062;-73
2023/02/25 01:25:40;;;;;;;6.45;1.73;;;;;;;;;;5099044;28;20052;-73
2023/02/25 01:28:11;;;;;;;3.15;1.50;;;;;;;;;;5097749;28;20051;-72
2023/02/25 01:30:42;;;;;;;2.58;1.33;;;;;;;;;;5097742;28;20536;-72
2023/02/25 01:33:12;;;;;;;1.60;1.15;;;;;;;;;;5081769;28;20047;-71
2023/02/25 01:35:42;;;;;;;2.22;1.13;;;;;;;;;;5097624;28;20047;-71
2023/02/25 01:38:12;;;;;;;2.53;1.38;;;;;;;;;;5093907;28;20055;-72
2023/02/25 01:40:42;;;;;;;3.97;1.60;;;;;;;;;;5088671;28;20040;-73
2023/02/25 01:43:17;;;;;;;4.70;1.23;;;;;;;;;;5069760;28;20052;-73
2023/02/25 01:45:53;;;;;;;2.17;1.33;;;;;;;;;;5070533;28;20048;-73
2023/02/25 01:48:35;;;;;;;2.40;1.40;;;;;;;;;;5070291;28;20063;-73
2023/02/25 01:51:13;;;;;;;5.90;1.40;;;;;;;;;;5089298;28;20052;-73
2023/02/25 01:53:47;;;;;;;2.10;1.30;;;;;;;;;;5088737;28;20048;-72
2023/02/25 01:56:21;;;;;;;2.58;1.40;;;;;;;;;;5069915;28;20047;-72
2023/02/25 01:58:53;;;;;;;3.50;1.10;;;;;;;;;;5070192;28;20418;-72
2023/02/25 02:01:28;;;;;;;5.50;1.55;;;;;;;;;;5070051;28;20052;-72
2023/02/25 02:04:05;;;;;;;3.72;1.50;;;;;;;;;;5089118;28;20059;-73
2023/02/25 02:06:40;;;;;;;3.15;1.30;;;;;;;;;;5074163;28;20047;-73
2023/02/25 02:09:18;;;;;;;2.28;1.00;;;;;;;;;;5097313;28;20063;-73
2023/02/25 02:11:48;;;;;;;5.78;1.40;;;;;;;;;;5079944;28;20130;-72
2023/02/25 02:14:25;;;;;;;4.15;1.23;;;;;;;;;;5071109;28;20459;-72
2023/02/25 02:17:25;;;;;;;5.45;1.10;;;;;;;;;;5088494;28;20131;-73
2023/02/25 02:20:14;;;;;;;3.97;1.60;;;;;;;;;;5088277;28;20051;-72
2023/02/25 02:23:04;;;;;;;7.80;1.45;;;;;;;;;;5087031;28;20051;-71
2023/02/25 02:25:59;;;;;;;3.63;1.38;;;;;;;;;;5069564;28;20044;-76
2023/02/25 02:28:46;;;;;;;2.47;1.15;;;;;;;;;;5087930;28;20044;-74
2023/02/25 02:31:40;;;;;;;4.43;1.20;;;;;;;;;;5088673;28;20048;-74
2023/02/25 02:34:36;;;;;;;4.13;1.60;;;;;;;;;;5069224;28;20052;-73
2023/02/25 02:37:12;;;;;;;6.15;1.65;;;;;;;;;;5088511;28;20049;-71
2023/02/25 02:40:13;;;;;;;8.00;1.40;;;;;;;;;;5069575;28;20048;-72
2023/02/25 02:42:52;;;;;;;3.95;1.30;;;;;;;;;;5069306;28;20056;-74
2023/02/25 02:45:37;;;;;;;5.40;1.33;;;;;;;;;;5068841;28;20052;-73
2023/02/25 02:48:16;;;;;;;6.68;1.30;;;;;;;;;;5069128;28;20427;-72
2023/02/25 02:50:55;;;;;;;6.03;1.63;;;;;;;;;;5068676;28;20388;-73
2023/02/25 02:53:35;;;;;;;5.47;1.50;;;;;;;;;;5087393;28;20422;-73
2023/02/25 02:56:10;;;;;;;6.38;1.33;;;;;;;;;;5069656;28;20059;-73
2023/02/25 02:59:08;;;;;;;2.85;1.48;;;;;;;;;;5069351;28;20044;-74
2023/02/25 03:02:03;;;;;;;2.90;1.40;;;;;;;;;;5068931;28;20063;-74
2023/02/25 03:04:39;;;;;;;8.85;1.52;;;;;;;;;;5069498;28;20461;-72
2023/02/25 03:07:13;;;;;;;4.13;1.42;;;;;;;;;;5087578;28;20044;-74
2023/02/25 03:09:56;;;;;;;7.40;1.30;;;;;;;;;;5068936;28;20052;-72
2023/02/25 03:12:32;;;;;;;6.18;1.40;;;;;;;;;;5086587;28;20060;-73
2023/02/25 03:15:05;;;;;;;5.07;1.30;;;;;;;;;;5068717;28;20040;-73
2023/02/25 03:17:46;;;;;;;4.78;1.40;;;;;;;;;;5086112;28;20438;-73
2023/02/25 03:20:23;;;;;;;3.40;1.30;;;;;;;;;;5068775;28;20052;-73
2023/02/25 03:22:58;;;;;;;3.05;1.25;;;;;;;;;;5068810;28;20060;-72
2023/02/25 03:25:35;;;;;;;4.72;1.33;;;;;;;;;;5068744;28;20530;-72
2023/02/25 03:28:16;;;;;;;3.20;1.30;;;;;;;;;;5068794;28;20515;-74
2023/02/25 03:31:23;;;;;;;2.10;1.25;;;;;;;;;;5085771;28;20371;-72
2023/02/25 03:34:00;;;;;;;5.20;1.17;;;;;;;;;;5068744;28;20547;-71
2023/02/25 03:36:46;;;;;;;5.25;1.35;;;;;;;;;;5068338;28;20439;-74
2023/02/25 03:39:25;;;;;;;4.53;1.48;;;;;;;;;;5085635;28;20047;-72
2023/02/25 03:42:00;;;;;;;5.63;1.20;;;;;;;;;;5067932;28;20071;-73
2023/02/25 03:44:44;;;;;;;4.00;1.10;;;;;;;;;;5068525;28;20052;-71
2023/02/25 03:47:18;;;;;;;7.75;1.35;;;;;;;;;;5068531;28;20052;-72
2023/02/25 03:50:21;;;;;;;4.40;1.33;;;;;;;;;;5068822;28;20048;-73
2023/02/25 03:52:57;;;;;;;6.90;1.17;;;;;;;;;;5068669;28;20051;-73
2023/02/25 03:55:47;;;;;;;4.03;1.55;;;;;;;;;;5092963;28;20060;-73
2023/02/25 03:58:17;;;;;;;7.40;1.20;;;;;;;;;;5067354;28;20054;-74
2023/02/25 04:00:53;;;;;;;14.00;1.60;;;;;;;;;;5067518;28;20056;-74
2023/02/25 04:03:25;;;;;;;4.90;1.48;;;;;;;;;;5086245;28;20052;-73
2023/02/25 04:05:55;;;;;;;3.10;1.42;;;;;;;;;;5068280;28;20442;-71
2023/02/25 04:08:26;;;;;;;4.03;1.33;;;;;;;;;;5068025;28;20048;-73
2023/02/25 04:10:56;;;;;;;7.13;1.50;;;;;;;;;;5087232;28;20044;-73
2023/02/25 04:13:28;;;;;;;5.75;1.45;;;;;;;;;;5068238;28;20056;-73
2023/02/25 04:15:58;;;;;;;3.97;1.40;;;;;;;;;;5068172;28;20408;-74
2023/02/25 04:18:29;;;;;;;5.15;1.45;;;;;;;;;;5068246;28;20074;-73
2023/02/25 04:20:59;;;;;;;1.73;1.20;;;;;;;;;;5068079;28;20055;-72
2023/02/25 04:23:30;;;;;;;2.45;1.40;;;;;;;;;;5085407;28;20052;-72
2023/02/25 04:26:00;;;;;;;6.07;1.45;;;;;;;;;;5086645;28;20052;-72
2023/02/25 04:28:32;;;;;;;4.43;1.73;;;;;;;;;;5086493;28;20056;-73
2023/02/25 04:31:02;;;;;;;5.43;1.60;;;;;;;;;;5086244;28;20048;-73
2023/02/25 04:33:32;;;;;;;7.03;1.60;;;;;;;;;;5085695;28;20063;-73
2023/02/25 04:36:02;;;;;;;7.88;1.60;;;;;;;;;;5086774;28;20803;-73
2023/02/25 04:38:32;;;;;;;4.40;1.40;;;;;;;;;;5086470;28;20051;-73
2023/02/25 04:41:03;;;;;;;2.67;1.40;;;;;;;;;;5070747;28;20051;-73
2023/02/25 04:43:34;;;;;;;8.10;1.55;;;;;;;;;;5090007;28;20407;-72
2023/02/25 04:46:04;;;;;;;4.32;1.50;;;;;;;;;;5090372;28;20047;-74
2023/02/25 04:48:35;;;;;;;3.72;1.63;;;;;;;;;;5090127;28;20044;-75
2023/02/25 04:51:07;;;;;;;6.28;1.60;;;;;;;;;;5090379;28;20058;-73
2023/02/25 04:53:38;;;;;;;6.38;1.65;;;;;;;;;;5090419;28;20388;-74
2023/02/25 04:56:09;;;;;;;10.43;1.73;;;;;;;;;;5090621;28;20371;-73
2023/02/25 04:58:42;;;;;;;5.07;2.03;;;;;;;;;;5090299;28;20048;-73
2023/02/25 05:01:13;;;;;;;3.95;1.83;;;;;;;;;;5090252;28;20067;-73
2023/02/25 05:03:44;;;;;;;6.43;2.03;;;;;;;;;;5090362;28;20048;-73
2023/02/25 05:06:16;;;;;;;8.48;2.40;;;;;;;;;;5090018;28;20047;-72
2023/02/25 05:08:45;;;;;;;5.20;2.80;;;;;;;;;;5090000;28;20487;-73
2023/02/25 05:11:17;;;;;;;8.55;2.80;;;;;;;;;;5090368;28;20043;-73
2023/02/25 05:13:49;;;;;;;6.20;2.80;;;;;;;;;;5089548;28;20044;-74
2023/02/25 05:16:19;;;;;;;9.00;2.50;;;;;;;;;;5090114;28;20048;-74
2023/02/25 05:18:51;;;;;;;3.80;2.83;;;;;;;;;;5089669;28;20067;-73
2023/02/25 05:21:24;;;;;;;7.68;3.22;;;;;;;;;;5089754;28;20047;-72
2023/02/25 05:23:55;;;;;;;5.03;3.00;;;;;;;;;;5089511;28;20047;-74
2023/02/25 05:26:25;;;;;;;8.93;2.80;;;;;;;;;;5089663;28;20036;-73
2023/02/25 05:28:57;;;;;;;9.13;2.67;;;;;;;;;;5088975;28;20047;-73
2023/02/25 05:31:27;;;;;;;7.38;2.83;;;;;;;;;;5089547;28;20086;-73
2023/02/25 05:33:58;;;;;;;12.75;3.00;;;;;;;;;;5089554;28;20040;-73
2023/02/25 05:36:30;;;;;;;5.22;2.75;;;;;;;;;;5089537;28;20055;-73
2023/02/25 05:39:01;;;;;;;13.13;2.97;;;;;;;;;;5089578;28;20533;-74
2023/02/25 05:41:31;;;;;;;7.45;3.05;;;;;;;;;;5089306;28;20514;-73
2023/02/25 05:44:03;;;;;;;7.80;3.53;;;;;;;;;;5089069;28;20047;-73
2023/02/25 05:46:35;;;;;;;9.45;3.00;;;;;;;;;;5088909;28;20044;-73
2023/02/25 05:49:06;;;;;;;9.65;3.15;;;;;;;;;;5088657;28;20044;-73
2023/02/25 05:51:35;;;;;;;4.95;3.20;;;;;;;;;;5088947;28;20040;-74
2023/02/25 05:54:05;;;;;;;4.22;2.65;;;;;;;;;;5088532;28;20044;-73
2023/02/25 05:56:36;;;;;;;7.30;2.65;;;;;;;;;;5089559;28;20391;-74
2023/02/25 05:59:07;;;;;;;10.55;3.10;;;;;;;;;;5070567;28;20048;-73
2023/02/25 06:01:37;;;;;;;8.80;3.13;;;;;;;;;;5089192;28;20068;-72
2023/02/25 06:04:08;;;;;;;6.18;2.95;;;;;;;;;;5088730;28;20040;-73
2023/02/25 06:06:38;;;;;;;6.25;3.03;;;;;;;;;;5088443;28;20067;-74
2023/02/25 06:09:09;;;;;;;6.03;2.88;;;;;;;;;;5088096;28;20044;-73
2023/02/25 06:11:39;;;;;;;7.90;2.65;;;;;;;;;;5088734;28;20048;-73
2023/02/25 06:14:09;;;;;;;10.45;3.30;;;;;;;;;;5089094;28;20048;-73
2023/02/25 06:16:40;;;;;;;6.30;3.92;;;;;;;;;;5088456;28;20531;-72
2023/02/25 06:19:12;;;;;;;12.60;3.72;;;;;;;;;;5087778;28;20115;-71
2023/02/25 06:21:43;;;;;;;6.10;3.53;;;;;;;;;;5088986;28;20434;-72
2023/02/25 06:24:14;;;;;;;8.35;3.47;;;;;;;;;;5088162;28;20048;-73
2023/02/25 06:26:44;;;;;;;9.00;3.22;;;;;;;;;;5087804;28;20491;-73
2023/02/25 06:29:15;;;;;;;8.20;3.30;;;;;;;;;;5088447;28;20056;-74
2023/02/25 06:31:46;;;;;;;6.25;3.47;;;;;;;;;;5088101;28;20051;-73
2023/02/25 06:34:18;;;;;;;6.80;3.60;;;;;;;;;;5087871;28;20040;-73
2023/02/25 06:36:48;;;;;;;6.00;3.20;;;;;;;;;;5087808;28;20051;-73
2023/02/25 06:39:18;;;;;;;8.38;3.33;;;;;;;;;;5070341;28;20048;-73
2023/02/25 06:41:49;;;;;;;8.20;3.83;;;;;;;;;;5068528;28;20056;-72
2023/02/25 06:44:19;;;;;;;4.20;3.28;;;;;;;;;;5087957;28;20032;-73
2023/02/25 06:46:50;;;;;;;10.43;3.30;;;;;;;;;;5087885;28;20106;-73
2023/02/25 06:49:22;;;;;;;5.28;3.28;;;;;;;;;;5088446;28;20134;-74
2023/02/25 06:51:53;;;;;;;5.65;3.13;;;;;;;;;;5088087;28;20055;-73
2023/02/25 06:54:23;;;;;;;8.75;3.20;;;;;;;;;;5087745;28;20055;-72
2023/02/25 06:56:54;;;;;;;6.72;3.38;;;;;;;;;;5069962;28;20828;-74
2023/02/25 06:59:25;;;;;;;5.00;3.35;;;;;;;;;;5070399;28;20073;-73
2023/02/25 07:01:55;;;;;;;6.57;3.85;;;;;;;;;;5087663;28;20043;-73
2023/02/25 07:04:26;;;;;;;8.98;4.03;;;;;;;;;;5069108;28;20051;-74
2023/02/25 07:06:57;;;;;;;7.57;3.72;;;;;;;;;;5087592;28;20048;-73
2023/02/25 07:09:27;;;;;;;6.97;3.75;;;;;;;;;;5087936;28;20036;-72
2023/02/25 07:11:58;;;;;;;12.52;3.70;;;;;;;;;;5087542;28;20044;-73
2023/02/25 07:14:30;;;;;;;6.50;3.22;;;;;;;;;;5088011;28;20044;-74
2023/02/25 07:17:02;;;;;;;8.80;3.00;;;;;;;;;;5087530;28;20491;-72
2023/02/25 07:19:32;;;;;;;6.18;3.28;;;;;;;;;;5087163;28;20044;-73
2023/02/25 07:22:04;;;;;;;6.55;2.80;;;;;;;;;;5087138;28;20398;-72
2023/02/25 07:24:34;;;;;;;9.35;3.03;;;;;;;;;;5087314;28;20507;-74
2023/02/25 07:27:05;;;;;;;5.95;3.50;;;;;;;;;;5086946;28;20036;-73
2023/02/25 07:29:36;;;;;;;10.02;3.17;;;;;;;;;;5087379;28;20063;-74
2023/02/25 07:32:10;;;;;;;7.80;3.35;;;;;;;;;;5068491;28;20063;-72
2023/02/25 07:34:42;;;;;;;11.80;3.28;;;;;;;;;;5087087;28;20048;-73
2023/02/25 07:37:15;;;;;;;8.70;3.17;;;;;;;;;;5087067;28;20047;-75
2023/02/25 07:39:45;;;;;;;9.75;3.30;;;;;;;;;;5087672;28;20059;-72
2023/02/25 07:42:16;;;;;;;8.50;3.30;;;;;;;;;;5087346;28;20044;-74
2023/02/25 07:44:50;;;;;;;5.20;2.95;;;;;;;;;;5067774;28;20396;-73
2023/02/25 07:47:21;;;;;;;5.82;3.13;;;;;;;;;;5086882;28;20669;-75
2023/02/25 07:49:52;;;;;;;12.07;3.33;;;;;;;;;;5086944;28;20064;-73
2023/02/25 07:52:22;;;;;;;9.93;3.00;;;;;;;;;;5087074;28;20040;-72
2023/02/25 07:54:53;;;;;;;6.20;3.20;;;;;;;;;;5086276;28;20051;-72
2023/02/25 07:57:24;;;;;;;9.10;3.40;;;;;;;;;;5087257;28;20063;-74
2023/02/25 07:59:55;;;;;;;5.80;3.30;;;;;;;;;;5086846;28;20051;-72
2023/02/25 08:02:25;;;;;;;9.45;3.65;;;;;;;;;;5085452;28;20487;-73
2023/02/25 08:04:56;;;;;;;7.03;3.55;;;;;;;;;;5068585;28;20040;-73
2023/02/25 08:07:27;;;;;;;7.72;3.67;;;;;;;;;;5068395;28;20126;-74
2023/02/25 08:09:57;;;;;;;13.20;3.75;;;;;;;;;;5067697;28;20044;-73
2023/02/25 08:12:27;;;;;;;10.25;3.95;;;;;;;;;;5086593;28;20047;-72
2023/02/25 08:15:00;;;;;;;13.27;4.40;;;;;;;;;;5086312;28;20048;-75
2023/02/25 08:17:34;;;;;;;6.03;3.50;;;;;;;;;;5090987;28;20059;-73
2023/02/25 08:20:06;;;;;;;10.20;4.25;;;;;;;;;;5090985;28;20051;-72
2023/02/25 08:22:37;;;;;;;7.43;3.88;;;;;;;;;;5071769;28;20448;-74
2023/02/25 08:25:07;;;;;;;8.50;3.72;;;;;;;;;;5072811;28;20051;-74
2023/02/25 08:27:38;;;;;;;12.90;4.50;;;;;;;;;;5090527;28;20515;-73
2023/02/25 08:30:10;;;;;;;10.20;3.65;;;;;;;;;;5090978;28;20047;-74
2023/02/25 08:32:41;;;;;;;6.05;3.15;;;;;;;;;;5090617;28;20044;-72
2023/02/25 08:35:11;;;;;;;10.02;3.90;;;;;;;;;;5090367;28;20496;-74
2023/02/25 08:37:44;;;;;;;4.78;3.40;;;;;;;;;;5073119;28;20383;-74
2023/02/25 08:40:16;;;;;;;7.57;3.22;;;;;;;;;;5090970;28;20483;-74
2023/02/25 08:42:47;;;;;;;5.93;3.45;;;;;;;;;;5090228;28;20047;-73
2023/02/25 08:45:17;;;;;;;13.18;4.00;;;;;;;;;;5089856;28;20051;-72
2023/02/25 08:47:48;;;;;;;9.27;4.00;;;;;;;;;;5072015;28;20055;-73
2023/02/25 08:50:19;;;;;;;11.02;3.65;;;;;;;;;;5089969;28;20056;-73
2023/02/25 08:52:50;;;;;;;6.72;3.80;;;;;;;;;;5089703;28;20535;-73
2023/02/25 08:55:23;;;;;;;4.90;3.13;;;;;;;;;;5090253;28;20051;-72
2023/02/25 08:57:54;;;;;;;6.28;3.40;;;;;;;;;;5090057;28;20493;-74
2023/02/25 09:00:24;;;;;;;5.90;3.47;;;;;;;;;;5090616;28;20044;-75
2023/02/25 09:02:55;;;;;;;7.05;3.22;;;;;;;;;;5090710;28;20055;-75
2023/02/25 09:05:25;;;;;;;6.85;3.08;;;;;;;;;;5090510;28;20055;-72
2023/02/25 09:07:57;;;;;;;10.98;3.95;;;;;;;;;;5090002;28;20055;-73
2023/02/25 09:10:28;;;;;;;5.03;2.90;;;;;;;;;;5090537;28;20044;-75
2023/02/25 09:13:13;;;;;;;12.35;4.07;;;;;;;;;;5074214;28;20055;-72
2023/02/25 09:15:43;;;;;;;13.25;3.85;;;;;;;;;;5089905;28;20052;-74
2023/02/25 09:18:13;;;;;;;8.95;4.43;;;;;;;;;;5089886;28;20056;-72
2023/02/25 09:20:48;;;;;;;11.02;4.30;;;;;;;;;;5089473;28;20442;-73
2023/02/25 09:23:19;;;;;;;9.55;4.10;;;;;;;;;;5071957;28;20052;-74
2023/02/25 09:25:50;;;;;;;14.73;4.82;;;;;;;;;;5089371;28;20055;-73
2023/02/25 09:28:20;;;;;;;11.75;5.07;;;;;;;;;;5070386;28;20860;-73
2023/02/25 09:30:52;;;;;;;10.65;4.30;;;;;;;;;;5070937;28;20059;-73
2023/02/25 09:33:23;;;;;;;8.40;4.72;;;;;;;;;;5089194;28;20044;-75
2023/02/25 09:35:53;;;;;;;7.75;5.00;;;;;;;;;;5089154;28;20509;-72
2023/02/25 09:38:24;;;;;;;9.18;4.40;;;;;;;;;;5089100;28;20059;-73
2023/02/25 09:40:55;;;;;;;8.23;4.53;;;;;;;;;;5069810;28;20048;-72
2023/02/25 09:43:38;;;;;;;8.82;4.60;;;;;;;;;;5089178;28;20074;-74
2023/02/25 09:46:14;;;;;;;8.75;4.60;;;;;;;;;;5088779;28;20550;-75
2023/02/25 09:48:56;;;;;;;12.73;4.90;;;;;;;;;;5088973;28;20048;-72
2023/02/25 09:51:32;;;;;;;10.77;4.82;;;;;;;;;;5089558;28;20052;-73
2023/02/25 09:54:20;;;;;;;10.13;5.22;;;;;;;;;;5089114;28;20052;-72
2023/02/25 09:56:54;;;;;;;9.35;4.80;;;;;;;;;;5089314;28;20051;-75
2023/02/25 09:59:28;;;;;;;17.83;5.15;;;;;;;;;;5088890;28;20052;-73
2023/02/25 10:02:21;;;;;;;9.93;4.63;;;;;;;;;;5088786;28;20048;-75
2023/02/25 10:05:17;;;;;;;10.18;4.43;;;;;;;;;;5088748;28;20052;-74
2023/02/25 10:08:06;;;;;;;7.45;4.18;;;;;;;;;;5087704;28;20052;-75
2023/02/25 10:10:48;;;;;;;9.35;4.72;;;;;;;;;;5088501;28;20055;-72
2023/02/25 10:13:29;;;;;;;10.88;5.22;;;;;;;;;;5088919;28;20499;-76
2023/02/25 10:16:23;;;;;;;10.38;5.40;;;;;;;;;;5088190;28;20507;-74
2023/02/25 10:19:08;;;;;;;8.38;5.88;;;;;;;;;;5087994;28;20058;-73
2023/02/25 10:21:41;;;;;;;12.73;5.20;;;;;;;;;;5088568;28;20044;-73
2023/02/25 10:24:45;;;;;;;9.25;5.32;;;;;;;;;;5088139;28;20040;-74
2023/02/25 10:27:29;;;;;;;11.65;5.95;;;;;;;;;;5087657;28;20056;-74
2023/02/25 10:30:26;;;;;;;7.70;5.18;;;;;;;;;;5087981;28;20045;-75
2023/02/25 10:33:02;;;;;;;8.13;3.65;;;;;;;;;;5086618;28;20063;-74
2023/02/25 10:35:38;;;;;;;7.32;3.45;;;;;;;;;;5088246;28;20506;-74
2023/02/25 10:38:11;;;;;;;;;;;;;;;;;;5086756;28;20040;-75
2023/02/25 10:40:42;;;;;;;8.38;3.00;;;;;;;;;;5087650;28;20386;-75
2023/02/25 10:43:21;;;;;;;7.25;3.25;;;;;;;;;;5087785;28;20052;-74
2023/02/25 10:46:10;;;;;;;4.57;2.80;;;;;;;;;;5088248;28;20044;-74
2023/02/25 10:48:47;;;;;;;7.05;2.70;;;;;;;;;;5088176;28;20048;-76
2023/02/25 10:51:17;;;;;;;6.22;3.00;;;;;;;;;;5087902;28;20514;-72
2023/02/25 10:53:57;;;;;;;11.93;2.70;;;;;;;;;;5088108;28;20044;-75
2023/02/25 10:56:44;;;;;;;6.43;4.00;;;;;;;;;;5087476;28;20544;-74
2023/02/25 10:59:36;;;;;;;8.02;2.38;;;;;;;;;;5087802;28;20055;-76
2023/02/25 11:02:22;;;;;;;5.70;2.22;;;;;;;;;;5087775;28;20126;-73
2023/02/25 11:04:55;;;;;;;2.88;1.90;;;;;;;;;;5087668;28;20044;-74
2023/02/25 11:07:37;;;;;;;18.27;3.45;;;;;;;;;;5087359;28;20051;-75
2023/02/25 11:10:22;;;;;;;2.92;1.45;;;;;;;;;;5087979;28;20063;-72
2023/02/25 11:12:56;;;;;;;3.40;1.40;;;;;;;;;;5088321;28;20048;-72
2023/02/25 11:15:28;;;;;;;3.45;1.35;;;;;;;;;;5087261;28;20040;-77
2023/02/25 11:18:22;;;;;;;1.80;1.13;;;;;;;;;;5087424;28;20059;-74
2023/02/25 11:20:57;;;;;;;3.35;1.20;;;;;;;;;;5087339;28;20053;-76
2023/02/25 11:23:31;;;;;;;3.53;1.10;;;;;;;;;;5087517;28;20415;-73
2023/02/25 11:26:02;;;;;;;2.42;1.08;;;;;;;;;;5068205;28;20060;-73
2023/02/25 11:28:43;;;;;;;2.03;0.93;;;;;;;;;;5087597;28;20048;-73
2023/02/25 11:31:24;;;;;;;2.05;0.73;;;;;;;;;;5087181;28;20051;-74
2023/02/25 11:34:00;;;;;;;6.25;1.27;;;;;;;;;;5087090;28;20077;-72
2023/02/25 11:36:36;;;;;;;4.65;0.98;;;;;;;;;;5086739;28;20407;-73
2023/02/25 11:39:31;;;;;;;1.70;1.02;;;;;;;;;;5086938;28;20519;-73
2023/02/25 11:42:25;;;;;;;2.05;1.60;;;;;;;;;;5086798;28;20518;-73
2023/02/25 11:45:04;;;;;;;2.88;1.75;;;;;;;;;;5086881;28;20059;-75
2023/02/25 11:47:37;;;;;;;7.80;2.13;;;;;;;;;;5087061;28;20043;-74
2023/02/25 11:50:16;;;;;;;3.38;1.40;;;;;;;;;;5085606;28;20063;-74
2023/02/25 11:53:02;;;;;;;7.35;1.55;;;;;;;;;;5086447;28;20536;-73
2023/02/25 11:55:43;;;;;;;18.40;1.52;;;;;;;;;;5086444;28;20055;-76
2023/02/25 11:58:14;;;;;;;14.52;2.40;;;;;;;;;;5069415;28;20055;-74
2023/02/25 12:01:07;;;;;;;14.43;1.90;;;;;;;;;;5086767;28;20050;-75
2023/02/25 12:04:07;;;;;;;9.35;1.90;;;;;;;;;;5069352;28;20415;-73
2023/02/25 12:06:48;;;;;;;11.25;3.90;;;;;;;;;;5086278;28;20071;-76
2023/02/25 12:09:52;;;;;;;6.20;3.90;;;;;;;;;;5088745;28;20047;-79
2023/02/25 12:12:23;;;;;;;5.90;2.20;;;;;;;;;;5089113;28;20044;-80
2023/02/25 12:15:01;;;;;;;8.27;1.85;;;;;;;;;;5089376;28;20110;-78
2023/02/25 12:18:09;;;;;;;4.78;2.03;;;;;;;;;;5070541;28;20059;-78
2023/02/25 12:20:58;;;;;;;6.28;1.83;;;;;;;;;;5006239;28;20413;-76
2023/02/25 12:24:03;;;;;;;4.18;1.88;;;;;;;;;;5089888;28;20063;-77
2023/02/25 12:27:04;;;;;;;4.65;2.22;;;;;;;;;;5091197;28;20052;-75
2023/02/25 12:29:55;;;;;;;6.82;2.03;;;;;;;;;;5091423;28;20487;-75
2023/02/25 12:32:54;;;;;;;6.63;2.20;;;;;;;;;;5090648;28;20055;-75
2023/02/25 12:35:43;;;;;;;5.50;2.53;;;;;;;;;;5061905;28;20060;-75
2023/02/25 12:38:40;;;;;;;5.07;2.22;;;;;;;;;;5090893;28;20048;-75
2023/02/25 12:41:44;;;;;;;6.15;1.80;;;;;;;;;;5088315;28;20044;-75
2023/02/25 12:44:44;;;;;;;3.25;1.60;;;;;;;;;;5092035;28;20051;-74
2023/02/25 12:48:02;;;;;;;2.65;1.90;;;;;;;;;;5092742;28;20047;-74
2023/02/25 12:50:59;;;;;;;2.38;1.70;;;;;;;;;;5085479;28;20056;-74
2023/02/25 12:53:54;;;;;;;3.90;2.08;;;;;;;;;;5090156;28;20491;-75
2023/02/25 12:57:04;;;;;;;7.18;2.03;;;;;;;;;;5089856;28;20407;-72
2023/02/25 12:59:54;;;;;;;5.85;2.05;;;;;;;;;;5071869;28;20045;-72
2023/02/25 13:02:36;;;;;;;5.97;1.88;;;;;;;;;;5092465;28;20036;-73
2023/02/25 13:05:15;;;;;;;5.68;2.42;;;;;;;;;;5094581;28;20513;-74
2023/02/25 13:07:47;;;;;;;4.63;2.00;;;;;;;;;;5092234;28;20056;-76
2023/02/25 13:10:38;;;;;;;4.10;1.75;;;;;;;;;;5094744;28;20521;-74
2023/02/25 13:13:45;;;;;;;5.93;2.70;;;;;;;;;;5093327;28;20048;-76
2023/02/25 13:16:22;;;;;;;6.38;1.85;;;;;;;;;;5092092;28;20039;-74
2023/02/25 13:19:28;;;;;;;2.30;1.30;;;;;;;;;;5094786;28;20044;-73
2023/02/25 13:22:23;;;;;;;2.13;1.33;;;;;;;;;;5094196;28;20498;-73
2023/02/25 13:25:22;;;;;;;5.35;1.60;;;;;;;;;;5091216;28;20062;-73
2023/02/25 13:28:14;;;;;;;1.35;1.15;;;;;;;;;;5092131;28;20055;-72
2023/02/25 13:31:01;;;;;;;3.63;1.63;;;;;;;;;;5093355;28;20044;-73
2023/02/25 13:33:56;;;;;;;3.53;1.60;;;;;;;;;;5093680;28;20048;-73
2023/02/25 13:36:42;;;;;;;2.80;1.38;;;;;;;;;;5090780;28;20503;-75
2023/02/25 13:39:30;;;;;;;11.52;2.78;;;;;;;;;;5091164;28;20784;-77
2023/02/25 13:42:14;;;;;;;3.50;1.73;;;;;;;;;;5092441;28;20048;-78
2023/02/25 13:44:51;;;;;;;13.95;2.72;;;;;;;;;;5089854;28;20633;-81
2023/02/25 13:47:52;;;;;;;4.00;1.80;;;;;;;;;;5089961;28;20048;-77
2023/02/25 13:51:14;;;;;;;7.95;1.92;;;;;;;;;;5092264;28;20829;-78
2023/02/25 13:54:06;;;;;;;3.33;1.30;;;;;;;;;;5059958;28;20073;-76
2023/02/25 13:56:50;;;;;;;2.30;1.58;;;;;;;;;;5092076;28;20048;-75
2023/02/25 13:59:44;;;;;;;2.60;1.48;;;;;;;;;;5096330;28;20052;-74
2023/02/25 14:02:23;;;;;;;2.45;1.35;;;;;;;;;;5099907;28;20248;-75
2023/02/25 14:05:31;;;;;;;3.92;1.83;;;;;;;;;;5102990;28;20047;-75
2023/02/25 14:08:25;;;;;;;4.20;1.50;;;;;;;;;;5084933;28;20414;-75
2023/02/25 14:11:15;;;;;;;5.90;1.48;;;;;;;;;;5092340;28;20048;-74
2023/02/25 14:14:16;;;;;;;2.13;1.30;;;;;;;;;;5090987;28;20048;-75
2023/02/25 14:17:08;;;;;;;3.65;1.50;;;;;;;;;;5090160;28;20056;-75
2023/02/25 14:19:59;;;;;;;7.60;1.85;;;;;;;;;;5088462;28;20063;-74
2023/02/25 14:22:36;;;;;;;3.92;1.70;;;;;;;;;;5088695;28;20054;-74
2023/02/25 14:25:44;;;;;;;3.63;1.63;;;;;;;;;;5086567;28;20055;-73
2023/02/25 14:28:42;;;;;;;2.72;1.88;;;;;;;;;;5088464;28;20059;-73
2023/02/25 14:31:49;;;;;;;3.08;1.73;;;;;;;;;;5088294;28;20028;-74
2023/02/25 14:34:41;;;;;;;3.95;1.63;;;;;;;;;;5088396;28;20048;-72
2023/02/25 14:37:29;;;;;;;4.75;2.35;;;;;;;;;;5090702;28;20384;-73
2023/02/25 14:40:39;;;;;;;4.00;1.80;;;;;;;;;;5088840;28;20048;-73
2023/02/25 14:43:26;;;;;;;3.10;1.55;;;;;;;;;;5045215;28;20056;-74
2023/02/25 14:46:01;;;;;;;3.15;1.50;;;;;;;;;;5089490;28;20040;-73
2023/02/25 14:48:49;;;;;;;4.32;1.50;;;;;;;;;;5088671;28;20419;-75
2023/02/25 14:51:41;;;;;;;2.05;1.00;;;;;;;;;;5088214;28;20757;-74
2023/02/25 14:54:30;;;;;;;3.42;1.48;;;;;;;;;;5090586;28;20514;-72
2023/02/25 14:57:35;;;;;;;4.35;1.30;;;;;;;;;;5090068;28;20047;-74
2023/02/25 15:00:23;;;;;;;3.10;1.10;;;;;;;;;;5090198;28;20048;-73
2023/02/25 15:03:21;;;;;;;6.43;2.28;;;;;;;;;;5089501;28;20043;-72
2023/02/25 15:06:19;;;;;;;2.08;0.82;;;;;;;;;;5088006;28;20043;-73
2023/02/25 15:09:21;;;;;;;6.32;1.08;;;;;;;;;;5070931;28;20052;-73
2023/02/25 15:12:10;;;;;;;1.90;1.00;;;;;;;;;;5087257;28;20048;-74
2023/02/25 15:15:03;;;;;;;1.58;1.10;;;;;;;;;;5089007;28;20052;-75
2023/02/25 15:17:42;;;;;;;2.92;1.00;;;;;;;;;;5091093;28;20407;-74
2023/02/25 15:20:34;;;;;;;3.75;1.00;;;;;;;;;;5088716;28;20040;-72
2023/02/25 15:23:12;;;;;;;2.65;1.10;;;;;;;;;;5070884;28;20047;-74
2023/02/25 15:25:52;;;;;;;2.60;0.90;;;;;;;;;;5088836;28;20051;-74
2023/02/25 15:28:31;;;;;;;2.30;1.17;;;;;;;;;;5089221;28;20044;-74
2023/02/25 15:31:08;;;;;;;5.90;1.77;;;;;;;;;;5091120;28;20051;-74
2023/02/25 15:33:44;;;;;;;1.88;0.90;;;;;;;;;;5089209;28;20426;-74
2023/02/25 15:36:16;;;;;;;1.25;0.80;;;;;;;;;;5091565;28;20067;-72
2023/02/25 15:38:49;;;;;;;2.53;1.10;;;;;;;;;;5091806;28;20062;-72
2023/02/25 15:41:28;;;;;;;4.40;1.20;;;;;;;;;;5093437;28;20055;-73
2023/02/25 15:43:59;;;;;;;3.20;1.52;;;;;;;;;;5091323;28;20846;-73
2023/02/25 15:46:37;;;;;;;4.82;1.08;;;;;;;;;;5090453;28;20055;-73
2023/02/25 15:49:10;;;;;;;2.67;1.33;;;;;;;;;;5090764;28;20052;-73